createdAt,value
2023-04-29T00:01:39.773Z,11.65
2023-04-29T00:04:11.084Z,11.61
2023-04-29T00:06:44.151Z,11.55
2023-04-29T00:09:15.705Z,11.46
2023-04-29T00:11:57.381Z,11.39
2023-04-29T00:14:29.086Z,11.36
2023-04-29T00:16:59.477Z,11.34
2023-04-29T00:19:29.601Z,11.26
2023-04-29T00:22:03.338Z,11.20
2023-04-29T00:24:36.043Z,11.18
2023-04-29T00:27:06.679Z,11.16
2023-04-29T00:29:40.595Z,11.14
2023-04-29T00:32:12.609Z,11.12
2023-04-29T00:34:42.740Z,11.09
2023-04-29T00:37:15.952Z,11.05
2023-04-29T00:39:52.425Z,10.98
2023-04-29T00:42:25.022Z,10.95
2023-04-29T00:52:38.138Z,10.90
2023-04-29T00:55:24.299Z,10.86
2023-04-29T00:55:25.000Z,10.93
2023-04-29T00:57:55.967Z,10.82
2023-04-29T01:00:29.288Z,10.76
2023-04-29T01:03:29.150Z,10.66
2023-04-29T01:06:09.232Z,10.52
2023-04-29T01:08:53.868Z,10.38
2023-04-29T01:11:33.047Z,10.30
2023-04-29T01:14:04.760Z,10.32
2023-04-29T01:16:41.254Z,10.34
2023-04-29T01:19:24.118Z,10.35
2023-04-29T01:21:54.232Z,10.34
2023-04-29T01:24:24.622Z,10.31
2023-04-29T01:26:59.676Z,10.29
2023-04-29T01:29:36.764Z,10.28
2023-04-29T01:32:11.281Z,10.27
2023-04-29T01:34:45.241Z,10.27
2023-04-29T01:37:31.889Z,10.27
2023-04-29T01:40:13.103Z,10.25
2023-04-29T01:42:56.047Z,10.23
2023-04-29T01:45:28.328Z,10.22
2023-04-29T01:48:01.285Z,10.22
2023-04-29T01:50:32.184Z,10.22
2023-04-29T01:53:02.777Z,10.19
2023-04-29T01:55:32.439Z,10.18
2023-04-29T01:58:02.468Z,10.13
2023-04-29T02:00:32.323Z,10.07
2023-04-29T02:03:02.660Z,10.03
2023-04-29T02:05:33.858Z,10.01
2023-04-29T02:08:07.014Z,9.98
2023-04-29T02:10:36.831Z,9.96
2023-04-29T02:13:07.456Z,9.94
2023-04-29T02:15:36.749Z,9.90
2023-04-29T02:18:06.465Z,9.88
2023-04-29T02:20:35.763Z,9.88
2023-04-29T02:23:07.423Z,9.86
2023-04-29T02:25:37.770Z,9.83
2023-04-29T02:28:08.485Z,9.79
2023-04-29T02:30:38.185Z,9.77
2023-04-29T02:33:08.647Z,9.75
2023-04-29T02:35:38.392Z,9.73
2023-04-29T02:38:08.470Z,9.69
2023-04-29T02:40:43.518Z,9.67
2023-04-29T02:43:13.491Z,9.62
2023-04-29T02:45:42.987Z,9.59
2023-04-29T02:48:13.112Z,9.57
2023-04-29T02:50:42.512Z,9.55
2023-04-29T02:53:11.662Z,9.50
2023-04-29T02:55:41.637Z,9.47
2023-04-29T02:58:11.958Z,9.45
2023-04-29T03:00:43.034Z,9.44
2023-04-29T03:03:14.456Z,9.36
2023-04-29T03:05:44.786Z,9.34
2023-04-29T03:08:14.282Z,9.33
2023-04-29T03:10:46.150Z,9.34
2023-04-29T03:13:17.497Z,9.32
2023-04-29T03:15:48.243Z,9.31
2023-04-29T03:18:19.426Z,9.27
2023-04-29T03:20:48.705Z,9.25
2023-04-29T03:23:18.018Z,9.24
2023-04-29T03:25:47.482Z,9.24
2023-04-29T03:28:19.472Z,9.23
2023-04-29T03:30:48.949Z,9.23
2023-04-29T03:33:18.381Z,9.23
2023-04-29T03:35:47.729Z,9.21
2023-04-29T03:38:17.950Z,9.20
2023-04-29T03:40:48.953Z,9.21
2023-04-29T03:43:18.729Z,9.28
2023-04-29T03:45:48.697Z,9.34
2023-04-29T03:48:18.477Z,9.41
2023-04-29T03:50:48.290Z,9.44
2023-04-29T03:53:18.526Z,9.43
2023-04-29T03:55:48.547Z,9.42
2023-04-29T03:58:19.037Z,9.46
2023-04-29T04:00:48.516Z,9.49
2023-04-29T04:03:18.889Z,9.50
2023-04-29T04:05:48.754Z,9.53
2023-04-29T04:08:24.447Z,9.53
2023-04-29T04:11:04.742Z,9.59
2023-04-29T04:13:35.738Z,9.67
2023-04-29T04:16:12.552Z,9.75
2023-04-29T04:18:42.741Z,9.83
2023-04-29T04:21:13.384Z,9.91
2023-04-29T04:23:44.293Z,9.99
2023-04-29T04:26:13.909Z,10.09
2023-04-29T04:28:44.561Z,10.17
2023-04-29T04:31:14.812Z,10.24
2023-04-29T04:33:44.147Z,10.26
2023-04-29T04:36:17.033Z,10.21
2023-04-29T04:38:46.582Z,10.18
2023-04-29T04:41:20.055Z,10.11
2023-04-29T04:43:58.484Z,10.12
2023-04-29T04:46:29.149Z,10.24
2023-04-29T04:48:59.128Z,10.38
2023-04-29T04:51:29.223Z,10.47
2023-04-29T04:53:58.864Z,10.52
2023-04-29T04:57:17.580Z,10.58
2023-04-29T04:59:42.965Z,10.66
2023-04-29T05:02:16.963Z,10.75
2023-04-29T05:05:28.830Z,10.90
2023-04-29T05:08:12.877Z,11.02
2023-04-29T05:10:46.731Z,11.11
2023-04-29T05:13:27.622Z,11.13
2023-04-29T05:16:08.983Z,11.15
2023-04-29T05:18:38.638Z,11.22
2023-04-29T05:21:12.528Z,11.34
2023-04-29T05:23:48.838Z,11.45
2023-04-29T05:26:19.111Z,11.53
2023-04-29T05:28:48.486Z,11.63
2023-04-29T05:31:18.437Z,11.72
2023-04-29T05:33:48.105Z,11.82
2023-04-29T05:36:20.633Z,11.90
2023-04-29T05:38:52.278Z,11.97
2023-04-29T05:41:41.058Z,12.01
2023-04-29T05:44:16.217Z,12.08
2023-04-29T05:46:48.850Z,12.13
2023-04-29T05:49:21.387Z,12.18
2023-04-29T05:51:55.634Z,12.20
2023-04-29T05:54:29.916Z,12.25
2023-04-29T05:59:55.543Z,12.41
2023-04-29T06:02:28.802Z,12.50
2023-04-29T06:05:06.114Z,12.59
2023-04-29T06:07:42.503Z,12.66
2023-04-29T06:10:16.279Z,12.68
2023-04-29T06:12:52.571Z,12.66
2023-04-29T06:15:27.290Z,12.65
2023-04-29T06:18:05.061Z,12.70
2023-04-29T06:21:01.627Z,12.74
2023-04-29T06:23:35.203Z,12.78
2023-04-29T06:26:10.777Z,12.86
2023-04-29T06:28:43.700Z,12.93
2023-04-29T06:31:16.631Z,12.96
2023-04-29T06:33:49.261Z,12.95
2023-04-29T06:36:22.113Z,12.95
2023-04-29T06:38:56.011Z,12.98
2023-04-29T06:41:29.376Z,13.02
2023-04-29T06:44:02.100Z,13.07
2023-04-29T06:46:37.290Z,13.13
2023-04-29T06:49:12.332Z,13.19
2023-04-29T06:51:45.242Z,13.26
2023-04-29T06:54:30.603Z,13.34
2023-04-29T06:57:04.394Z,13.37
2023-04-29T06:59:41.424Z,13.35
2023-04-29T07:02:16.762Z,13.35
2023-04-29T07:05:37.734Z,13.39
2023-04-29T07:08:21.423Z,13.45
2023-04-29T07:11:15.836Z,13.53
2023-04-29T07:14:01.309Z,13.61
2023-04-29T07:16:41.343Z,13.68
2023-04-29T07:19:20.341Z,13.76
2023-04-29T07:22:05.361Z,13.84
2023-04-29T07:24:42.639Z,13.93
2023-04-29T07:27:17.307Z,14.03
2023-04-29T07:29:54.457Z,14.13
2023-04-29T07:32:31.943Z,14.21
2023-04-29T07:35:11.235Z,14.28
2023-04-29T07:37:44.320Z,14.32
2023-04-29T07:40:18.021Z,14.38
2023-04-29T07:42:50.878Z,14.44
2023-04-29T07:45:24.298Z,14.46
2023-04-29T07:48:03.067Z,14.52
2023-04-29T07:50:39.418Z,14.58
2023-04-29T07:53:12.840Z,14.66
2023-04-29T07:55:45.943Z,14.72
2023-04-29T07:58:18.850Z,14.79
2023-04-29T08:00:52.169Z,14.86
2023-04-29T08:03:24.848Z,14.94
2023-04-29T08:06:02.304Z,14.97
2023-04-29T08:08:37.368Z,15.02
2023-04-29T08:11:17.398Z,15.06
2023-04-29T08:13:57.261Z,15.03
2023-04-29T08:16:30.758Z,15.11
2023-04-29T08:19:03.580Z,15.17
2023-04-29T08:21:39.502Z,15.22
2023-04-29T08:24:12.230Z,15.29
2023-04-29T08:26:44.908Z,15.37
2023-04-29T08:29:17.584Z,15.44
2023-04-29T08:31:50.463Z,15.49
2023-04-29T08:34:24.197Z,15.54
2023-04-29T08:36:58.644Z,15.59
2023-04-29T08:39:32.244Z,15.63
2023-04-29T08:42:13.793Z,15.71
2023-04-29T08:44:48.108Z,15.77
2023-04-29T08:47:21.596Z,15.80
2023-04-29T08:49:57.080Z,15.76
2023-04-29T08:52:29.991Z,15.66
2023-04-29T08:55:03.780Z,15.66
2023-04-29T08:57:40.442Z,15.73
2023-04-29T09:00:14.851Z,15.79
2023-04-29T09:02:51.110Z,15.85
2023-04-29T09:05:27.423Z,15.85
2023-04-29T09:08:04.107Z,15.68
2023-04-29T09:10:40.130Z,15.54
2023-04-29T09:13:28.985Z,15.46
2023-04-29T09:16:01.891Z,15.53
2023-04-29T09:18:49.700Z,15.61
2023-04-29T09:21:23.911Z,15.70
2023-04-29T09:23:58.256Z,15.80
2023-04-29T09:26:37.468Z,15.89
2023-04-29T09:29:14.399Z,15.93
2023-04-29T09:31:47.986Z,15.96
2023-04-29T09:34:31.604Z,16.05
2023-04-29T09:37:05.168Z,16.12
2023-04-29T09:39:42.676Z,16.02
2023-04-29T09:42:16.450Z,15.94
2023-04-29T09:44:49.159Z,16.00
2023-04-29T09:47:33.423Z,16.13
2023-04-29T09:50:16.738Z,16.24
2023-04-29T09:52:49.617Z,16.32
2023-04-29T09:55:22.473Z,16.39
2023-04-29T09:57:55.152Z,16.45
2023-04-29T10:00:30.005Z,16.50
2023-04-29T10:03:07.294Z,16.59
2023-04-29T10:05:40.885Z,16.69
2023-04-29T10:08:14.368Z,16.70
2023-04-29T10:10:58.242Z,16.59
2023-04-29T10:13:32.998Z,16.49
2023-04-29T10:16:18.888Z,16.51
2023-04-29T10:19:03.778Z,16.60
2023-04-29T10:21:39.516Z,16.53
2023-04-29T10:24:16.402Z,16.43
2023-04-29T10:26:52.392Z,16.31
2023-04-29T10:29:28.478Z,16.34
2023-04-29T10:32:03.804Z,16.47
2023-04-29T10:34:39.112Z,16.52
2023-04-29T10:37:14.617Z,16.58
2023-04-29T10:39:59.526Z,16.49
2023-04-29T10:42:40.669Z,16.51
2023-04-29T10:45:28.826Z,16.57
2023-04-29T10:48:25.717Z,16.60
2023-04-29T10:51:10.473Z,16.61
2023-04-29T10:54:12.589Z,16.63
2023-04-29T10:56:56.875Z,16.68
2023-04-29T10:59:48.560Z,16.57
2023-04-29T11:02:21.611Z,16.64
2023-04-29T11:05:19.174Z,16.77
2023-04-29T11:08:10.922Z,16.82
2023-04-29T11:10:47.628Z,16.86
2023-04-29T11:13:39.208Z,16.91
2023-04-29T11:16:13.842Z,16.92
2023-04-29T11:19:12.537Z,16.92
2023-04-29T11:21:45.955Z,17.07
2023-04-29T11:24:19.479Z,17.21
2023-04-29T11:26:53.801Z,17.34
2023-04-29T11:29:27.449Z,17.44
2023-04-29T11:32:03.572Z,17.56
2023-04-29T11:34:38.008Z,17.63
2023-04-29T11:37:12.527Z,17.68
2023-04-29T11:39:45.403Z,17.70
2023-04-29T11:42:23.667Z,17.70
2023-04-29T11:45:00.562Z,17.74
2023-04-29T11:47:34.396Z,17.69
2023-04-29T11:50:11.786Z,17.72
2023-04-29T11:52:47.984Z,17.79
2023-04-29T11:55:21.842Z,17.75
2023-04-29T11:57:55.843Z,17.64
2023-04-29T12:00:28.379Z,17.51
2023-04-29T12:03:02.704Z,17.50
2023-04-29T12:05:40.718Z,17.62
2023-04-29T12:08:14.675Z,17.67
2023-04-29T12:10:48.237Z,17.77
2023-04-29T12:13:22.284Z,17.91
2023-04-29T12:15:58.584Z,18.03
2023-04-29T12:18:32.133Z,18.26
2023-04-29T12:21:05.143Z,18.52
2023-04-29T12:23:39.699Z,18.70
2023-04-29T12:26:13.370Z,18.76
2023-04-29T12:28:46.532Z,18.74
2023-04-29T12:31:19.321Z,18.78
2023-04-29T12:33:55.567Z,18.82
2023-04-29T12:36:29.953Z,18.99
2023-04-29T12:39:03.272Z,19.32
2023-04-29T12:41:42.056Z,19.82
2023-04-29T12:44:17.145Z,20.14
2023-04-29T12:46:52.649Z,20.37
2023-04-29T12:49:30.011Z,20.39
2023-04-29T12:52:04.425Z,20.47
2023-04-29T12:54:44.350Z,20.86
2023-04-29T12:57:17.536Z,21.39
2023-04-29T12:59:51.058Z,21.49
2023-04-29T13:02:26.704Z,21.50
2023-04-29T13:05:00.313Z,21.14
2023-04-29T13:07:33.469Z,20.74
2023-04-29T13:10:09.726Z,20.55
2023-04-29T13:12:43.789Z,20.53
2023-04-29T13:15:17.112Z,20.38
2023-04-29T13:17:50.851Z,20.21
2023-04-29T13:20:23.839Z,20.33
2023-04-29T13:22:56.834Z,20.61
2023-04-29T13:25:30.920Z,20.77
2023-04-29T13:28:05.602Z,20.95
2023-04-29T13:30:42.359Z,21.19
2023-04-29T13:33:15.046Z,21.42
2023-04-29T13:35:49.859Z,21.71
2023-04-29T13:38:24.152Z,21.71
2023-04-29T13:40:57.609Z,21.78
2023-04-29T13:43:37.775Z,22.04
2023-04-29T13:46:15.208Z,22.08
2023-04-29T14:12:12.100Z,23.47
2023-04-29T14:14:46.181Z,23.27
2023-04-29T14:17:20.428Z,23.95
2023-04-29T14:19:53.870Z,24.50
2023-04-29T14:22:29.501Z,24.71
2023-04-29T14:25:04.200Z,24.60
2023-04-29T14:27:38.437Z,25.01
2023-04-29T14:30:16.024Z,25.28
2023-04-29T14:32:51.344Z,24.53
2023-04-29T14:35:24.636Z,24.17
2023-04-29T14:37:57.772Z,24.31
2023-04-29T14:40:31.228Z,24.98
2023-04-29T14:43:13.405Z,25.25
2023-04-29T14:45:47.598Z,25.10
2023-04-29T14:48:21.485Z,24.95
2023-04-29T14:50:54.021Z,24.81
2023-04-29T14:53:28.533Z,24.81
2023-04-29T14:56:01.663Z,24.77
2023-04-29T14:58:34.440Z,24.62
2023-04-29T15:01:09.182Z,24.59
2023-04-29T15:03:44.464Z,24.49
2023-04-29T15:06:18.806Z,24.45
2023-04-29T15:08:51.480Z,24.40
2023-04-29T15:11:29.208Z,24.44
2023-04-29T15:14:07.490Z,23.89
2023-04-29T15:16:44.422Z,23.02
2023-04-29T15:19:18.015Z,22.45
2023-04-29T15:21:50.948Z,22.12
2023-04-29T15:24:24.398Z,22.20
2023-04-29T15:26:58.246Z,22.54
2023-04-29T15:29:35.058Z,22.59
2023-04-29T15:32:10.908Z,22.39
2023-04-29T15:34:44.006Z,22.13
2023-04-29T15:37:17.410Z,22.03
2023-04-29T15:39:50.877Z,22.13
2023-04-29T15:42:24.319Z,22.27
2023-04-29T15:44:57.892Z,22.25
2023-04-29T15:47:31.078Z,22.30
2023-04-29T15:50:05.705Z,22.01
2023-04-29T15:52:40.536Z,21.67
2023-04-29T15:55:16.803Z,21.51
2023-04-29T15:57:52.254Z,21.35
2023-04-29T16:00:25.030Z,21.09
2023-04-29T16:02:58.131Z,20.70
2023-04-29T16:05:31.831Z,20.49
2023-04-29T16:08:06.318Z,20.39
2023-04-29T16:10:47.018Z,20.30
2023-04-29T16:13:25.531Z,20.39
2023-04-29T16:15:58.918Z,20.42
2023-04-29T16:18:33.327Z,20.39
2023-04-29T16:21:06.239Z,20.34
2023-04-29T16:23:40.816Z,20.21
2023-04-29T16:26:16.148Z,20.16
2023-04-29T16:28:49.342Z,20.18
2023-04-29T16:31:23.462Z,20.09
2023-04-29T16:33:57.287Z,19.89
2023-04-29T16:36:30.294Z,19.74
2023-04-29T16:39:04.922Z,19.67
2023-04-29T16:41:56.606Z,19.57
2023-04-29T16:44:29.215Z,19.44
2023-04-29T16:47:02.834Z,19.29
2023-04-29T16:49:35.504Z,19.11
2023-04-29T16:52:09.654Z,18.96
2023-04-29T16:54:44.792Z,18.85
2023-04-29T16:57:17.435Z,18.76
2023-04-29T16:59:50.105Z,18.70
2023-04-29T17:02:24.208Z,18.67
2023-04-29T17:04:57.039Z,18.58
2023-04-29T17:07:30.795Z,18.52
2023-04-29T17:10:03.653Z,18.48
2023-04-29T17:12:37.130Z,18.44
2023-04-29T17:15:13.361Z,18.41
2023-04-29T17:17:47.601Z,18.35
2023-04-29T17:20:21.852Z,18.27
2023-04-29T17:22:58.148Z,18.19
2023-04-29T17:25:33.684Z,18.08
2023-04-29T17:28:07.722Z,17.93
2023-04-29T17:30:55.531Z,17.82
2023-04-29T17:33:35.577Z,17.71
2023-04-29T17:36:19.313Z,17.66
2023-04-29T17:38:52.026Z,17.59
2023-04-29T17:41:25.798Z,17.45
2023-04-29T17:43:59.724Z,17.36
2023-04-29T17:46:33.210Z,17.30
2023-04-29T17:49:06.370Z,17.23
2023-04-29T17:51:43.116Z,17.19
2023-04-29T17:54:21.181Z,17.15
2023-04-29T17:56:54.150Z,17.11
2023-04-29T17:59:27.666Z,17.06
2023-04-29T18:02:01.474Z,17.00
2023-04-29T18:04:34.574Z,16.94
2023-04-29T18:07:07.913Z,16.90
2023-04-29T18:09:41.827Z,16.85
2023-04-29T18:12:16.174Z,16.79
2023-04-29T18:14:52.348Z,16.73
2023-04-29T18:17:31.679Z,16.67
2023-04-29T18:20:06.500Z,16.61
2023-04-29T18:22:39.547Z,16.55
2023-04-29T18:25:19.239Z,16.50
2023-04-29T18:27:56.989Z,16.45
2023-04-29T18:30:33.238Z,16.39
2023-04-29T18:33:06.500Z,16.34
2023-04-29T18:35:42.131Z,16.27
2023-04-29T18:38:17.557Z,16.20
2023-04-29T18:40:50.661Z,16.14
2023-04-29T18:43:28.438Z,16.10
2023-04-29T18:46:02.770Z,16.04
2023-04-29T18:48:36.683Z,16.00
2023-04-29T18:51:12.741Z,15.94
2023-04-29T18:53:48.047Z,15.88
2023-04-29T18:56:22.018Z,15.76
2023-04-29T18:58:55.292Z,15.64
2023-04-29T19:01:29.258Z,15.60
2023-04-29T19:04:04.623Z,15.59
2023-04-29T19:06:41.167Z,15.55
2023-04-29T19:09:15.651Z,15.52
2023-04-29T19:11:48.998Z,15.50
2023-04-29T19:14:22.566Z,15.49
2023-04-29T19:16:55.573Z,15.48
2023-04-29T19:19:29.114Z,15.46
2023-04-29T19:22:05.530Z,15.42
2023-04-29T19:24:44.150Z,15.40
2023-04-29T19:27:17.350Z,15.39
2023-04-29T19:29:51.875Z,15.36
2023-04-29T19:35:51.073Z,15.28
2023-04-29T19:38:24.553Z,15.25
2023-04-29T19:41:03.148Z,15.21
2023-04-29T19:43:48.014Z,15.17
2023-04-29T19:46:31.723Z,15.11
2023-04-29T19:49:13.146Z,15.08
2023-04-29T19:51:50.932Z,15.05
2023-04-29T19:54:24.033Z,15.02
2023-04-29T19:56:57.198Z,15.00
2023-04-29T19:59:30.761Z,14.97
2023-04-29T20:02:04.138Z,14.95
2023-04-29T20:04:38.434Z,14.94
2023-04-29T20:07:13.993Z,14.93
2023-04-29T20:09:51.676Z,14.89
2023-04-29T20:12:29.237Z,14.87
2023-04-29T20:15:02.240Z,14.84
2023-04-29T20:17:39.258Z,14.82
2023-04-29T20:20:12.928Z,14.78
2023-04-29T20:22:46.477Z,14.75
2023-04-29T20:25:19.589Z,14.73
2023-04-29T20:27:54.663Z,14.71
2023-04-29T20:30:30.408Z,14.70
2023-04-29T20:33:03.379Z,14.66
2023-04-29T20:35:39.961Z,14.61
2023-04-29T20:38:29.339Z,14.57
2023-04-29T20:41:08.087Z,14.52
2023-04-29T20:43:52.837Z,14.46
2023-04-29T20:46:26.208Z,14.41
2023-04-29T20:48:59.059Z,14.36
2023-04-29T20:51:33.115Z,14.33
2023-04-29T20:54:08.907Z,14.32
2023-04-29T20:56:45.832Z,14.32
2023-04-29T20:59:20.153Z,14.29
2023-04-29T21:01:55.260Z,14.26
2023-04-29T21:04:28.818Z,14.21
2023-04-29T21:07:03.175Z,14.14
2023-04-29T21:09:52.529Z,14.06
2023-04-29T21:12:26.428Z,14.03
2023-04-29T21:14:59.905Z,14.05
2023-04-29T21:17:32.647Z,14.07
2023-04-29T21:20:13.821Z,14.05
2023-04-29T21:22:47.480Z,14.02
2023-04-29T21:25:21.974Z,13.98
2023-04-29T21:27:56.056Z,13.95
2023-04-29T21:30:29.023Z,13.92
2023-04-29T21:33:01.679Z,13.88
2023-04-29T21:35:35.067Z,13.83
2023-04-29T21:38:08.599Z,13.80
2023-04-29T21:40:43.833Z,13.75
2023-04-29T21:43:17.272Z,13.71
2023-04-29T21:45:52.101Z,13.67
2023-04-29T21:48:26.672Z,13.62
2023-04-29T21:51:05.237Z,13.56
2023-04-29T21:53:38.374Z,13.53
2023-04-29T21:56:11.855Z,13.51
2023-04-29T21:58:44.464Z,13.47
2023-04-29T22:01:29.578Z,13.45
2023-04-29T22:04:02.000Z,13.41
2023-04-29T22:06:38.591Z,13.38
2023-04-29T22:09:12.769Z,13.35
2023-04-29T22:11:45.859Z,13.31
2023-04-29T22:14:31.473Z,13.27
2023-04-29T22:17:04.198Z,13.15
2023-04-29T22:19:37.055Z,13.11
2023-04-29T22:22:09.872Z,13.10
2023-04-29T22:24:42.733Z,13.00
2023-04-29T22:27:16.639Z,12.92
2023-04-29T22:29:49.453Z,12.91
2023-04-29T22:32:25.080Z,12.88
2023-04-29T22:35:00.562Z,12.85
2023-04-29T22:37:34.080Z,12.83
2023-04-29T22:40:09.207Z,12.83
2023-04-29T22:42:43.792Z,12.83
2023-04-29T22:45:18.360Z,12.83
2023-04-29T22:47:52.024Z,12.82
2023-04-29T22:50:26.106Z,12.81
2023-04-29T22:52:58.735Z,12.80
2023-04-29T22:55:31.379Z,12.79
2023-04-29T22:58:04.305Z,12.77
2023-04-29T23:00:37.398Z,12.76
2023-04-29T23:03:10.159Z,12.74
2023-04-29T23:05:43.102Z,12.69
2023-04-29T23:08:16.253Z,12.58
2023-04-29T23:10:52.390Z,12.49
2023-04-29T23:13:25.981Z,12.47
2023-04-29T23:16:00.898Z,12.43
2023-04-29T23:18:33.826Z,12.41
2023-04-29T23:21:07.704Z,12.40
2023-04-29T23:23:40.780Z,12.41
2023-04-29T23:26:13.639Z,12.41
2023-04-29T23:28:46.704Z,12.42
2023-04-29T23:31:20.067Z,12.42
2023-04-29T23:33:53.589Z,12.42
2023-04-29T23:36:27.960Z,12.41
2023-04-29T23:39:01.191Z,12.39
2023-04-29T23:41:34.405Z,12.34
2023-04-29T23:44:07.593Z,12.26
2023-04-29T23:46:41.101Z,12.22
2023-04-29T23:49:14.402Z,12.21
2023-04-29T23:51:47.453Z,12.22
2023-04-29T23:54:20.774Z,12.18
2023-04-29T23:56:54.640Z,12.13
2023-04-29T23:59:27.539Z,12.11
